Flight Track Log - Related Links

Times and Time Zones

All times are in EDT time to prevent confusion due to time zone crossing. See the AMX201 flight status page for this flight to view local times or setup timezone preferences in your user account.

Time Position Orientation Groundspeed Altitude Reporting Facility
EDT Latitude Longitude Course Direction KTS MPH feet Rate Location/Type
Mon 09:26:00 AM 25.2566 -103.1780 146° Southeast  Level Estimated
Mon 09:27:00 AM 25.1786 -103.1200 146° Southeast  Level Estimated
Mon 09:28:00 AM 25.1006 -103.0622 146° Southeast  Level Estimated
Mon 09:29:00 AM 25.0225 -103.0043 146° Southeast  Level Estimated
Mon 09:30:00 AM 24.9445 -102.9466 146° Southeast  Level Estimated
Mon 09:31:00 AM 24.8664 -102.8889 146° Southeast  Level Estimated
Mon 09:32:00 AM 24.7883 -102.8314 146° Southeast  Level Estimated
Mon 09:33:00 AM 24.7102 -102.7738 146° Southeast  Level Estimated
Mon 09:34:00 AM 24.6320 -102.7164 146° Southeast  Level Estimated
Mon 09:35:00 AM 24.5539 -102.6590 146° Southeast  Level Estimated
Mon 09:36:00 AM 24.4757 -102.6017 146° Southeast  Level Estimated
Mon 09:37:00 AM 24.3975 -102.5445 146° Southeast  Level Estimated
Mon 09:38:00 AM 24.3193 -102.4873 146° Southeast  Level Estimated
Mon 09:39:00 AM 24.2410 -102.4302 146° Southeast  Level Estimated
Mon 09:40:00 AM 24.1627 -102.3732 146° Southeast  Level Estimated
Mon 09:41:00 AM 24.0844 -102.3163 146° Southeast  Level Estimated
Mon 09:42:00 AM 24.0061 -102.2594 146° Southeast  Level Estimated
Mon 09:43:00 AM 23.9278 -102.2026 146° Southeast  Level Estimated
Mon 09:44:00 AM 23.8494 -102.1458 146° Southeast  Level Estimated
Mon 09:45:00 AM 23.7711 -102.0892 147° Southeast  Level Estimated
Mon 09:46:00 AM 23.6927 -102.0326 147° Southeast  Level Estimated
Mon 09:47:00 AM 23.6143 -101.9760 147° Southeast  Level Estimated
Mon 09:48:00 AM 23.5358 -101.9195 147° Southeast  Level Estimated
Mon 09:49:00 AM 23.4573 -101.8632 147° Southeast  Level Estimated
Mon 09:50:00 AM 23.3789 -101.8068 147° Southeast  Level Estimated
Mon 09:51:00 AM 23.3004 -101.7505 147° Southeast  Level Estimated
Mon 09:52:00 AM 23.2218 -101.6943 147° Southeast  Level Estimated
Mon 09:53:00 AM 23.1433 -101.6382 147° Southeast  Level Estimated
Mon 09:54:00 AM 23.0648 -101.5821 147° Southeast  Level Estimated
Mon 09:54:42 AM 22.9430 -101.1070 147° Southeast 449 517 39,000  Level FlightAware ADS-B
Mon 09:55:00 AM 22.9862 -101.5261 147° Southeast  Level Estimated
Mon 09:55:37 AM 22.8400 -101.0790 166° South 449 517 39,000  Level FlightAware ADS-B
Mon 09:56:22 AM 22.7450 -101.0170 149° Southeast 489 563 39,000  Level FlightAware ADS-B
Mon 09:57:02 AM 22.6750 -100.9540 140° Southeast 490 564 39,000  Level FlightAware ADS-B
Mon 09:57:42 AM 22.6040 -100.8910 141° Southeast 490 564 39,000  Level FlightAware ADS-B
Mon 09:58:27 AM 22.5280 -100.8240 141° Southeast 489 563 39,000  Level FlightAware ADS-B
Mon 09:59:07 AM 22.4560 -100.7600 141° Southeast 488 562 39,000  Level FlightAware ADS-B
Mon 09:59:52 AM 22.3770 -100.6900 141° Southeast 487 560 39,000  Level FlightAware ADS-B
Mon 10:00:32 AM 22.3070 -100.6280 141° Southeast 487 560 39,000  Level FlightAware ADS-B
Mon 10:01:17 AM 22.2350 -100.5650 141° Southeast 486 559 39,000  Level FlightAware ADS-B
Mon 10:01:57 AM 22.1610 -100.5000 141° Southeast 483 556 39,000  Level FlightAware ADS-B
Mon 10:02:37 AM 22.0910 -100.4380 141° Southeast 481 554 39,000  Level FlightAware ADS-B
Mon 10:03:17 AM 22.0220 -100.3780 141° Southeast 480 552 39,000  Level FlightAware ADS-B
Mon 10:04:02 AM 21.9480 -100.3130 141° Southeast 479 551 39,000  Level FlightAware ADS-B
Mon 10:04:37 AM 21.8860 -100.2590 141° Southeast 478 550 39,000  Level FlightAware ADS-B
Mon 10:05:22 AM 21.8200 -100.1990 140° Southeast 478 550 39,000  Level FlightAware ADS-B
Mon 10:06:07 AM 21.7290 -100.1220 142° Southeast 478 550 39,000  Level FlightAware ADS-B
Mon 10:06:47 AM 21.6600 -100.0620 141° Southeast 476 548 39,000  Level FlightAware ADS-B
Mon 10:07:32 AM 21.5920 -100.0010 140° Southeast 477 549 39,000  Level FlightAware ADS-B
Mon 10:08:12 AM 21.5340 -99.9490 140° Southeast 477 549 39,000  Level FlightAware ADS-B
Mon 10:08:52 AM 21.4770 -99.8970 140° Southeast 477 549 39,000  Level FlightAware ADS-B
Mon 10:09:32 AM 21.4190 -99.8450 140° Southeast 477 549 39,000  Level FlightAware ADS-B
Mon 10:10:12 AM 21.3620 -99.7930 140° Southeast 477 549 39,000  Level FlightAware ADS-B
Mon 10:11:02 AM 21.2900 -99.7290 140° Southeast 477 549 39,000  Level FlightAware ADS-B
Mon 10:11:42 AM 21.2320 -99.6770 140° Southeast 477 549 39,000  Level FlightAware ADS-B
Mon 10:12:22 AM 21.1750 -99.6250 140° Southeast 477 549 39,000  Level FlightAware ADS-B
Mon 10:13:02 AM 21.1170 -99.5740 141° Southeast 477 549 39,000  Level FlightAware ADS-B
Mon 10:13:42 AM 21.0600 -99.5220 140° Southeast 477 549 39,000  Level FlightAware ADS-B
Mon 10:14:32 AM 20.9880 -99.4570 140° Southeast 477 549 39,000  Level FlightAware ADS-B
Mon 10:15:12 AM 20.9310 -99.4060 140° Southeast 477 549 39,000  Level FlightAware ADS-B
Mon 10:15:52 AM 20.8730 -99.3540 140° Southeast 477 549 39,000  Level FlightAware ADS-B
Mon 10:16:32 AM 20.8160 -99.3020 140° Southeast 477 549 39,000 -2,772 Level FlightAware ADS-B
Mon 10:19:00 AM 20.5870 -99.2635 171° South  Level Estimated
Mon 10:20:00 AM 20.4942 -99.2480 171° South  Level Estimated
Mon 10:21:00 AM 20.4013 -99.2325 171° South  Level Estimated
Mon 10:22:00 AM 20.3085 -99.2169 171° South  Level Estimated
Mon 10:23:00 AM 20.2156 -99.2014 171° South  Level Estimated
Mon 10:23:07 AM 20.0110 -99.1200 171° South 321 369 18,900  Level FlightAware ADS-B
Mon 10:23:52 AM 19.9410 -99.1370 193° South 311 358 17,600 -1,765 Descending FlightAware ADS-B
Mon 10:24:32 AM 19.8870 -99.1500 193° South 310 357 16,400 -1,425 Descending FlightAware ADS-B
Mon 10:25:12 AM 19.8320 -99.1630 193° South 287 330 15,700 -1,271 Descending FlightAware ADS-B
Mon 10:25:57 AM 19.7750 -99.1760 192° South 274 315 14,600 -1,482 Descending FlightAware ADS-B
Mon 10:26:37 AM 19.7270 -99.1870 192° South 271 312 13,600 -1,341 Descending FlightAware ADS-B
Mon 10:27:22 AM 19.6710 -99.2010 193° South 259 298 12,700 -1,059 Descending FlightAware ADS-B
Mon 10:28:02 AM 19.6240 -99.2120 192° South 248 285 12,100 -825 Descending FlightAware ADS-B
Mon 10:28:42 AM 19.5780 -99.2230 193° South 243 280 11,600 -424 Descending FlightAware ADS-B
Mon 10:29:27 AM 19.5330 -99.2220 179° South 218 251 11,500 -706 Descending FlightAware ADS-B
Mon 10:30:07 AM 19.4920 -99.2120 167° South 224 258 10,600 -1,129 Descending FlightAware ADS-B
Mon 10:30:52 AM 19.4490 -99.2000 165° South 201 231 9,900 -857 Descending FlightAware ADS-B
Mon 10:31:17 AM 19.4270 -99.1940 166° South 197 227 9,600 -873 Descending FlightAware ADS-B
Mon 10:31:47 AM 19.4010 -99.1860 164° South 197 227 9,100 -1,067 Descending FlightAware ADS-B
Mon 10:32:02 AM 19.3930 -99.1760 130° Southeast 192 221 8,800 -960 Descending FlightAware ADS-B
Mon 10:32:12 AM 19.3910 -99.1680 105° East 189 217 8,700 -750 Descending FlightAware ADS-B
Mon 10:32:42 AM 19.3970 -99.1400 77° East 175 201 8,300 -800 Descending FlightAware ADS-B
Mon 10:32:57 AM 19.4030 -99.1290 60° Northeast 170 196 8,100 -1,200 Descending FlightAware ADS-B
Mon 10:33:22 AM 19.4130 -99.1110 59° Northeast 168 193 7,500 -1,200 Descending FlightAware ADS-B
Mon 10:33:32 AM 19.4160 -99.1050 62° Northeast 166 191 7,400 -171 Descending FlightAware ADS-B
Mon 10:33:57 AM 19.4250 -99.0900 58° Northeast 166 191 7,400  Level FlightAware ADS-B
Mon 10:36:00 AM 19.4363 -99.0721 56° Northeast  Level Estimated
Mon 10:37:00 AM 19.4363 -99.0721 43° Northeast  Level Estimated
Mon 10:38:00 AM 19.4363 -99.0721 43° Northeast  Level Estimated
Mon 10:39:00 AM 19.4363 -99.0721 43° Northeast  Level Estimated
Mon 10:40:00 AM 19.4363 -99.0721 43° Northeast  Level Estimated
Mon 10:41:00 AM 19.4363 -99.0721 43° Northeast  Level Estimated
Mon 10:42:00 AM 19.4363 -99.0721 43° Northeast  Level Estimated
Mon 10:43:00 AM 19.4363 -99.0721 43° Northeast  Level Estimated
Mon 10:44:00 AM 19.4363 -99.0721 43° Northeast  Level Estimated
Mon 10:45:00 AM 19.4363 -99.0721 43° Northeast  Level Estimated
Mon 10:46:00 AM 19.4363 -99.0721 43° Northeast  Level Estimated
Mon 10:47:00 AM 19.4363 -99.0721 43° Northeast  Level Estimated
Mon 10:48:00 AM 19.4363 -99.0721 43° Northeast  Level Estimated
Mon 10:49:00 AM 19.4363 -99.0721 43° Northeast  Level Estimated
Mon 10:50:00 AM 19.4363 -99.0721 43° Northeast  Level Estimated
Mon 10:51:00 AM 19.4363 -99.0721 43° Northeast  Level Estimated
Mon 10:52:00 AM 19.4363 -99.0721 43° Northeast  Level Estimated
Mon 10:53:00 AM 19.4363 -99.0721 43° Northeast  Level Estimated
Mon 10:54:00 AM 19.4363 -99.0721 43° Northeast  Level Estimated
Mon 10:55:00 AM 19.4363 -99.0721 43° Northeast  Level Estimated
Mon 10:56:00 AM 19.4363 -99.0721 43° Northeast  Level Estimated

Login

Don't have an account? Register now (free) for customized features, flight alerts, and more!